createdAt,value
2022-12-07T00:00:38.465Z,59.16
2022-12-07T00:02:40.051Z,59.26
2022-12-07T00:04:41.672Z,59.70
2022-12-07T00:06:46.255Z,58.81
2022-12-07T00:08:48.863Z,59.05
2022-12-07T00:10:50.496Z,58.95
2022-12-07T00:12:52.046Z,58.78
2022-12-07T00:14:53.548Z,58.30
2022-12-07T00:16:55.144Z,57.97
2022-12-07T00:18:57.355Z,57.76
2022-12-07T00:21:02.986Z,58.24
2022-12-07T00:23:05.835Z,58.04
2022-12-07T00:25:07.864Z,58.60
2022-12-07T00:27:09.433Z,58.46
2022-12-07T00:29:15.719Z,58.49
2022-12-07T00:31:18.849Z,58.12
2022-12-07T00:33:20.480Z,58.79
2022-12-07T00:35:22.010Z,58.64
2022-12-07T00:37:23.552Z,58.51
2022-12-07T00:39:26.464Z,58.90
2022-12-07T00:41:29.419Z,58.42
2022-12-07T00:43:31.306Z,58.17
2022-12-07T00:45:32.806Z,58.14
2022-12-07T00:47:34.422Z,58.45
2022-12-07T00:49:35.909Z,58.58
2022-12-07T00:51:37.492Z,58.67
2022-12-07T00:53:41.900Z,58.41
2022-12-07T00:55:45.492Z,58.76
2022-12-07T00:57:46.995Z,58.79
2022-12-07T00:59:49.259Z,58.58
2022-12-07T01:01:50.842Z,58.68
2022-12-07T01:03:52.572Z,58.45
2022-12-07T01:05:56.025Z,58.60
2022-12-07T01:07:57.862Z,58.77
2022-12-07T01:09:59.878Z,58.43
2022-12-07T01:12:03.165Z,58.44
2022-12-07T01:14:04.809Z,58.46
2022-12-07T01:16:07.295Z,58.81
2022-12-07T01:18:09.304Z,58.97
2022-12-07T01:20:12.184Z,59.26
2022-12-07T01:22:13.669Z,59.14
2022-12-07T01:24:15.147Z,59.35
2022-12-07T01:26:19.240Z,59.47
2022-12-07T01:28:22.279Z,59.75
2022-12-07T01:30:23.919Z,59.76
2022-12-07T01:32:25.469Z,59.64
2022-12-07T01:34:26.990Z,60.13
2022-12-07T01:36:30.968Z,60.22
2022-12-07T01:38:33.386Z,60.34
2022-12-07T01:40:35.017Z,60.38
2022-12-07T01:42:36.501Z,60.31
2022-12-07T01:45:11.540Z,60.26
2022-12-07T01:47:14.408Z,60.08
2022-12-07T01:49:23.814Z,60.36
2022-12-07T01:51:25.965Z,60.29
2022-12-07T01:53:30.318Z,60.18
2022-12-07T01:55:32.021Z,59.95
2022-12-07T01:57:36.508Z,60.05
2022-12-07T01:59:38.915Z,60.18
2022-12-07T02:01:40.496Z,59.95
2022-12-07T02:03:45.460Z,59.83
2022-12-07T02:05:48.978Z,59.82
2022-12-07T02:07:53.573Z,59.72
2022-12-07T02:09:55.197Z,59.70
2022-12-07T02:11:57.222Z,59.68
2022-12-07T02:13:58.762Z,59.35
2022-12-07T02:16:22.648Z,59.20
2022-12-07T02:18:31.646Z,59.07
2022-12-07T02:20:43.735Z,58.97
2022-12-07T02:23:01.801Z,59.19
2022-12-07T02:25:13.037Z,59.16
2022-12-07T02:27:39.464Z,59.03
2022-12-07T02:29:48.291Z,59.11
2022-12-07T02:31:57.451Z,58.94
2022-12-07T02:34:09.045Z,59.09
2022-12-07T02:36:15.345Z,58.64
2022-12-07T02:38:22.178Z,58.48
2022-12-07T02:40:29.975Z,59.19
2022-12-07T02:42:37.656Z,59.02
2022-12-07T02:44:40.326Z,59.05
2022-12-07T02:46:48.103Z,59.09
2022-12-07T02:48:51.983Z,58.65
2022-12-07T02:50:54.671Z,58.93
2022-12-07T02:52:56.509Z,58.98
2022-12-07T02:54:58.515Z,58.61
2022-12-07T02:57:08.607Z,58.38
2022-12-07T02:59:18.346Z,58.54
2022-12-07T03:01:31.391Z,58.41
2022-12-07T03:03:36.984Z,58.67
2022-12-07T03:06:01.773Z,58.49
2022-12-07T03:08:11.793Z,58.22
2022-12-07T03:10:21.514Z,58.42
2022-12-07T03:12:29.547Z,58.58
2022-12-07T03:14:35.855Z,58.10
2022-12-07T03:16:42.292Z,58.42
2022-12-07T03:18:50.238Z,57.77
2022-12-07T03:20:56.187Z,58.20
2022-12-07T03:23:00.466Z,58.19
2022-12-07T03:25:05.999Z,58.65
2022-12-07T03:27:13.216Z,58.49
2022-12-07T03:29:20.886Z,58.61
2022-12-07T03:31:24.886Z,58.54
2022-12-07T03:33:32.402Z,58.63
2022-12-07T03:35:40.636Z,58.75
2022-12-07T03:37:48.578Z,58.38
2022-12-07T03:40:02.955Z,58.73
2022-12-07T03:42:07.324Z,58.91
2022-12-07T03:44:09.227Z,59.04
2022-12-07T03:46:20.200Z,59.10
2022-12-07T03:48:26.334Z,59.59
2022-12-07T03:50:32.277Z,59.49
2022-12-07T03:52:41.408Z,59.57
2022-12-07T03:54:48.906Z,59.52
2022-12-07T03:56:51.581Z,59.87
2022-12-07T03:58:54.323Z,59.69
2022-12-07T04:00:56.614Z,59.64
2022-12-07T04:02:58.542Z,59.86
2022-12-07T04:05:00.200Z,59.64
2022-12-07T04:07:02.123Z,59.47
2022-12-07T04:09:05.132Z,59.83
2022-12-07T04:11:06.780Z,59.80
2022-12-07T04:13:08.385Z,59.82
2022-12-07T04:15:10.378Z,59.72
2022-12-07T04:17:12.113Z,59.57
2022-12-07T04:19:14.829Z,59.23
2022-12-07T04:21:16.346Z,58.75
2022-12-07T04:23:18.002Z,58.85
2022-12-07T04:25:21.147Z,58.79
2022-12-07T04:27:22.704Z,59.32
2022-12-07T04:29:24.704Z,59.30
2022-12-07T04:31:26.310Z,59.47
2022-12-07T04:33:27.878Z,59.13
2022-12-07T04:35:29.673Z,59.67
2022-12-07T04:37:31.213Z,59.18
2022-12-07T04:39:33.868Z,59.50
2022-12-07T04:41:36.717Z,59.87
2022-12-07T04:43:38.944Z,59.72
2022-12-07T04:45:41.007Z,59.96
2022-12-07T04:47:42.869Z,60.04
2022-12-07T04:49:44.469Z,60.58
2022-12-07T04:51:46.947Z,60.89
2022-12-07T04:53:48.850Z,60.72
2022-12-07T04:55:50.342Z,60.73
2022-12-07T04:57:53.535Z,60.65
2022-12-07T04:59:55.173Z,60.85
2022-12-07T05:01:56.802Z,60.96
2022-12-07T05:03:58.479Z,61.12
2022-12-07T05:06:00.286Z,61.02
2022-12-07T05:08:01.877Z,61.37
2022-12-07T05:10:04.384Z,61.17
2022-12-07T05:12:06.378Z,61.08
2022-12-07T05:14:12.683Z,61.14
2022-12-07T05:16:14.248Z,61.07
2022-12-07T05:18:16.016Z,60.93
2022-12-07T05:20:17.683Z,60.66
2022-12-07T05:22:19.338Z,60.62
2022-12-07T05:24:20.991Z,60.72
2022-12-07T05:26:23.196Z,60.64
2022-12-07T05:28:24.807Z,60.84
2022-12-07T05:30:27.792Z,60.49
2022-12-07T05:32:29.396Z,60.60
2022-12-07T05:34:31.043Z,60.66
2022-12-07T05:36:32.730Z,61.25
2022-12-07T05:38:34.346Z,61.12
2022-12-07T05:40:37.229Z,60.96
2022-12-07T05:42:39.164Z,60.96
2022-12-07T05:44:41.371Z,60.82
2022-12-07T05:46:44.338Z,60.83
2022-12-07T05:48:46.278Z,61.11
2022-12-07T05:50:49.003Z,61.31
2022-12-07T05:52:50.916Z,61.43
2022-12-07T05:54:52.837Z,61.13
2022-12-07T05:56:54.640Z,61.15
2022-12-07T05:58:56.234Z,61.43
2022-12-07T06:00:58.139Z,61.71
2022-12-07T06:03:01.570Z,61.55
2022-12-07T06:05:03.296Z,61.12
2022-12-07T06:07:05.603Z,61.54
2022-12-07T06:09:07.268Z,61.58
2022-12-07T06:11:08.864Z,61.28
2022-12-07T06:13:10.519Z,61.38
2022-12-07T06:15:12.091Z,61.10
2022-12-07T06:17:13.904Z,60.91
2022-12-07T06:19:17.256Z,61.29
2022-12-07T06:21:19.059Z,61.18
2022-12-07T06:23:20.671Z,61.09
2022-12-07T06:25:22.256Z,61.29
2022-12-07T06:27:25.265Z,60.98
2022-12-07T06:29:26.840Z,61.10
2022-12-07T06:31:28.673Z,61.46
2022-12-07T06:33:30.714Z,61.31
2022-12-07T06:35:34.669Z,61.17
2022-12-07T06:37:36.443Z,60.76
2022-12-07T06:39:38.161Z,60.89
2022-12-07T06:41:40.413Z,61.16
2022-12-07T06:43:41.940Z,60.85
2022-12-07T06:45:43.845Z,61.27
2022-12-07T06:47:46.939Z,61.03
2022-12-07T06:49:49.003Z,61.10
2022-12-07T06:51:51.829Z,61.05
2022-12-07T06:53:53.609Z,61.50
2022-12-07T06:55:55.662Z,61.49
2022-12-07T06:57:57.302Z,60.84
2022-12-07T07:00:00.669Z,60.50
2022-12-07T07:02:02.753Z,61.13
2022-12-07T07:04:04.984Z,60.25
2022-12-07T07:06:07.687Z,60.56
2022-12-07T07:08:26.323Z,60.89
2022-12-07T07:10:28.500Z,60.59
2022-12-07T07:12:30.308Z,60.75
2022-12-07T07:14:32.427Z,60.68
2022-12-07T07:16:34.137Z,60.70
2022-12-07T07:18:35.861Z,60.62
2022-12-07T07:20:38.271Z,60.80
2022-12-07T07:22:40.092Z,60.74
2022-12-07T07:24:43.236Z,61.10
2022-12-07T07:26:45.027Z,61.22
2022-12-07T07:28:47.136Z,61.08
2022-12-07T07:30:49.053Z,61.00
2022-12-07T07:32:51.012Z,61.12
2022-12-07T07:34:53.326Z,60.97
2022-12-07T07:36:55.326Z,60.97
2022-12-07T07:38:57.092Z,60.87
2022-12-07T07:41:00.247Z,61.10
2022-12-07T07:43:02.167Z,61.46
2022-12-07T07:45:04.843Z,61.37
2022-12-07T07:47:07.081Z,61.05
2022-12-07T07:49:10.792Z,61.01
2022-12-07T07:51:12.606Z,60.93
2022-12-07T07:53:14.657Z,61.08
2022-12-07T07:55:17.212Z,61.27
2022-12-07T07:57:20.343Z,61.39
2022-12-07T07:59:22.027Z,61.28
2022-12-07T08:01:23.706Z,61.18
2022-12-07T08:03:26.215Z,60.84
2022-12-07T08:05:27.861Z,61.25
2022-12-07T08:07:29.761Z,61.41
2022-12-07T08:09:31.800Z,61.11
2022-12-07T08:11:33.405Z,61.45
2022-12-07T08:13:38.302Z,61.21
2022-12-07T08:15:41.395Z,60.92
2022-12-07T08:17:43.124Z,61.03
2022-12-07T08:19:45.058Z,61.00
2022-12-07T08:21:46.840Z,60.99
2022-12-07T08:23:48.493Z,61.31
2022-12-07T08:25:50.413Z,60.58
2022-12-07T08:27:52.990Z,60.70
2022-12-07T08:29:56.235Z,60.58
2022-12-07T08:31:57.833Z,60.68
2022-12-07T08:33:59.892Z,60.78
2022-12-07T08:36:02.374Z,60.30
2022-12-07T08:38:04.106Z,60.36
2022-12-07T08:40:07.523Z,60.28
2022-12-07T08:42:09.235Z,60.41
2022-12-07T08:44:11.143Z,60.28
2022-12-07T08:46:21.429Z,60.07
2022-12-07T08:48:23.533Z,60.14
2022-12-07T08:50:25.754Z,59.94
2022-12-07T08:52:27.556Z,59.88
2022-12-07T08:54:30.090Z,59.80
2022-12-07T08:56:32.109Z,59.71
2022-12-07T08:58:34.098Z,59.74
2022-12-07T09:00:36.470Z,59.56
2022-12-07T09:02:39.748Z,59.58
2022-12-07T09:04:41.589Z,58.87
2022-12-07T09:06:44.153Z,59.72
2022-12-07T09:08:48.393Z,59.58
2022-12-07T09:10:50.252Z,59.73
2022-12-07T09:12:52.409Z,59.45
2022-12-07T09:14:54.104Z,59.73
2022-12-07T09:16:55.805Z,59.50
2022-12-07T09:18:59.109Z,59.87
2022-12-07T09:21:00.770Z,59.40
2022-12-07T09:23:02.575Z,59.39
2022-12-07T09:25:05.786Z,59.62
2022-12-07T09:27:07.343Z,59.75
2022-12-07T09:29:09.020Z,59.75
2022-12-07T09:31:26.699Z,60.19
2022-12-07T09:33:28.633Z,59.65
2022-12-07T09:35:31.637Z,59.85
2022-12-07T09:37:33.313Z,60.25
2022-12-07T09:39:35.286Z,60.61
2022-12-07T09:41:41.579Z,60.68
2022-12-07T09:43:43.427Z,60.35
2022-12-07T09:45:48.722Z,60.36
2022-12-07T09:47:50.904Z,60.75
2022-12-07T09:49:54.286Z,60.49
2022-12-07T09:52:19.167Z,60.46
2022-12-07T09:54:21.027Z,60.88
2022-12-07T09:56:24.304Z,61.15
2022-12-07T09:58:29.876Z,60.72
2022-12-07T10:00:31.521Z,61.04
2022-12-07T10:02:38.744Z,61.07
2022-12-07T10:04:41.203Z,60.88
2022-12-07T10:06:43.572Z,61.10
2022-12-07T10:08:46.585Z,60.73
2022-12-07T10:10:52.514Z,60.74
2022-12-07T10:12:57.399Z,61.04
2022-12-07T10:15:09.153Z,61.15
2022-12-07T10:17:35.489Z,60.89
2022-12-07T10:19:37.158Z,61.17
2022-12-07T10:21:39.855Z,60.72
2022-12-07T10:23:43.592Z,60.93
2022-12-07T10:25:46.936Z,60.83
2022-12-07T10:27:59.351Z,60.84
2022-12-07T10:30:01.126Z,60.97
2022-12-07T10:32:05.237Z,61.03
2022-12-07T10:34:22.635Z,60.42
2022-12-07T10:36:27.334Z,61.02
2022-12-07T10:38:30.484Z,61.02
2022-12-07T10:40:35.622Z,61.37
2022-12-07T10:42:38.660Z,61.15
2022-12-07T10:44:40.389Z,61.24
2022-12-07T10:46:53.559Z,61.01
2022-12-07T10:49:05.565Z,61.33
2022-12-07T10:51:13.053Z,60.81
2022-12-07T10:53:31.143Z,61.15
2022-12-07T10:55:46.838Z,61.25
2022-12-07T10:58:04.043Z,61.18
2022-12-07T11:00:14.274Z,61.33
2022-12-07T11:02:26.572Z,60.79
2022-12-07T11:04:36.695Z,60.79
2022-12-07T11:06:44.833Z,60.84
2022-12-07T11:08:59.535Z,61.11
2022-12-07T11:11:10.460Z,60.95
2022-12-07T11:13:28.754Z,60.80
2022-12-07T11:15:42.016Z,61.38
2022-12-07T11:17:49.925Z,61.12
2022-12-07T11:20:03.604Z,61.21
2022-12-07T11:22:14.073Z,60.93
2022-12-07T11:24:18.064Z,61.06
2022-12-07T11:26:52.589Z,60.77
2022-12-07T11:29:12.529Z,61.40
2022-12-07T11:31:28.754Z,60.89
2022-12-07T11:33:36.751Z,60.88
2022-12-07T11:35:46.623Z,60.63
2022-12-07T11:37:49.430Z,60.59
2022-12-07T11:39:53.708Z,60.88
2022-12-07T11:42:01.890Z,60.73
2022-12-07T11:44:08.128Z,60.62
2022-12-07T11:46:15.008Z,60.92
2022-12-07T11:48:22.649Z,60.75
2022-12-07T11:50:34.078Z,60.81
2022-12-07T11:52:45.985Z,60.65
2022-12-07T11:54:51.798Z,60.79
2022-12-07T11:56:57.490Z,60.69
2022-12-07T11:59:04.278Z,60.70
2022-12-07T12:01:15.880Z,60.67
2022-12-07T12:03:27.428Z,60.31
2022-12-07T12:05:29.151Z,60.61
2022-12-07T12:09:58.042Z,60.83
2022-12-07T12:14:49.773Z,60.18
2022-12-07T12:17:13.635Z,60.58
2022-12-07T12:19:26.216Z,60.07
2022-12-07T12:21:29.767Z,60.33
2022-12-07T12:23:39.259Z,60.29
2022-12-07T12:25:44.048Z,59.08
2022-12-07T12:27:47.952Z,58.43
2022-12-07T12:29:55.832Z,58.89
2022-12-07T12:32:15.923Z,59.11
2022-12-07T12:34:45.417Z,59.38
2022-12-07T12:36:51.784Z,57.80
2022-12-07T12:39:11.593Z,57.61
2022-12-07T12:41:52.681Z,57.79
2022-12-07T12:43:54.300Z,57.61
2022-12-07T12:46:29.367Z,56.69
2022-12-07T12:48:37.805Z,58.28
2022-12-07T12:50:40.705Z,57.11
2022-12-07T12:53:12.034Z,58.18
2022-12-07T12:55:16.637Z,57.78
2022-12-07T12:57:27.422Z,58.27
2022-12-07T12:59:33.702Z,58.32
2022-12-07T13:01:43.858Z,57.56
2022-12-07T13:03:55.416Z,57.33
2022-12-07T13:06:33.281Z,55.92
2022-12-07T13:08:37.119Z,56.26
2022-12-07T13:10:44.846Z,56.58
2022-12-07T13:12:56.723Z,56.88
2022-12-07T13:15:00.001Z,57.25
2022-12-07T13:17:02.010Z,56.69
2022-12-07T13:19:42.346Z,56.74
2022-12-07T13:21:44.927Z,57.57
2022-12-07T13:23:56.597Z,56.90
2022-12-07T13:26:15.573Z,56.87
2022-12-07T13:28:21.226Z,56.26
2022-12-07T13:30:23.584Z,56.10
2022-12-07T13:32:27.402Z,56.25
2022-12-07T13:34:32.335Z,55.93
2022-12-07T13:36:37.973Z,55.91
2022-12-07T13:38:39.825Z,55.96
2022-12-07T13:40:41.765Z,55.85
2022-12-07T13:42:44.798Z,55.29
2022-12-07T13:44:46.635Z,55.09
2022-12-07T13:46:55.188Z,55.89
2022-12-07T13:48:57.148Z,54.79
2022-12-07T13:51:02.857Z,55.37
2022-12-07T13:53:13.387Z,55.88
2022-12-07T13:55:17.804Z,56.17
2022-12-07T13:57:19.887Z,55.94
2022-12-07T13:59:24.437Z,54.54
2022-12-07T14:01:27.252Z,55.75
2022-12-07T14:03:32.801Z,54.62
2022-12-07T14:05:35.967Z,55.10
2022-12-07T14:07:50.659Z,55.00
2022-12-07T14:10:00.478Z,55.68
2022-12-07T14:12:07.728Z,55.59
2022-12-07T14:14:16.393Z,55.06
2022-12-07T14:16:26.458Z,54.17
2022-12-07T14:18:30.258Z,54.91
2022-12-07T14:20:34.495Z,54.62
2022-12-07T14:22:38.261Z,54.80
2022-12-07T14:24:44.619Z,54.70
2022-12-07T14:26:47.312Z,55.86
2022-12-07T14:28:49.006Z,54.94
2022-12-07T14:30:50.815Z,54.96
2022-12-07T14:32:55.754Z,54.78
2022-12-07T14:34:59.741Z,54.27
2022-12-07T14:37:01.459Z,55.20
2022-12-07T14:39:03.157Z,55.34
2022-12-07T14:41:14.501Z,56.10
2022-12-07T14:43:18.189Z,54.39
2022-12-07T14:45:22.440Z,54.79
2022-12-07T14:49:46.346Z,55.20
2022-12-07T14:54:17.218Z,55.24
2022-12-07T14:56:20.627Z,55.28
2022-12-07T14:58:22.286Z,55.15
2022-12-07T15:00:25.617Z,54.98
2022-12-07T15:02:27.288Z,54.73
2022-12-07T15:04:29.121Z,54.06
2022-12-07T15:06:30.718Z,54.42
2022-12-07T15:08:32.791Z,54.34
2022-12-07T15:10:35.218Z,54.49
2022-12-07T15:12:38.091Z,54.43
2022-12-07T15:14:39.735Z,54.71
2022-12-07T15:17:07.474Z,54.50
2022-12-07T15:19:27.420Z,54.57
2022-12-07T15:21:26.938Z,54.79
2022-12-07T15:23:28.766Z,54.55
2022-12-07T15:25:30.439Z,54.20
2022-12-07T15:27:32.155Z,54.27
2022-12-07T15:29:35.270Z,54.63
2022-12-07T15:31:55.003Z,54.85
2022-12-07T15:33:59.331Z,54.36
2022-12-07T15:36:04.086Z,54.28
2022-12-07T15:38:06.434Z,54.46
2022-12-07T15:40:09.967Z,54.57
2022-12-07T15:42:11.818Z,54.34
2022-12-07T15:44:14.918Z,54.41
2022-12-07T15:46:18.282Z,54.75
2022-12-07T15:48:27.794Z,54.17
2022-12-07T15:50:29.901Z,54.45
2022-12-07T15:52:38.158Z,54.35
2022-12-07T15:54:39.874Z,54.64
2022-12-07T15:56:42.118Z,55.80
2022-12-07T15:58:43.825Z,54.43
2022-12-07T16:00:45.553Z,54.07
2022-12-07T16:02:48.893Z,53.80
2022-12-07T16:04:50.970Z,54.20
2022-12-07T16:06:53.305Z,53.57
2022-12-07T16:08:55.269Z,54.09
2022-12-07T16:10:57.247Z,53.95
2022-12-07T16:12:59.143Z,53.87
2022-12-07T16:15:01.974Z,53.87
2022-12-07T16:17:04.979Z,53.67
2022-12-07T16:19:11.303Z,53.59
2022-12-07T16:21:13.518Z,53.93
2022-12-07T16:23:15.773Z,54.82
2022-12-07T16:25:17.729Z,54.07
2022-12-07T16:27:19.423Z,53.99
2022-12-07T16:29:22.775Z,53.23
2022-12-07T16:31:27.931Z,53.65
2022-12-07T16:33:30.078Z,54.11
2022-12-07T16:35:33.544Z,54.09
2022-12-07T16:37:35.525Z,54.49
2022-12-07T16:39:37.230Z,54.59
2022-12-07T16:41:39.138Z,54.36
2022-12-07T16:43:41.278Z,54.10
2022-12-07T16:45:43.075Z,54.45
2022-12-07T16:47:44.864Z,53.94
2022-12-07T16:49:46.564Z,54.76
2022-12-07T16:52:08.637Z,54.57
2022-12-07T16:54:14.195Z,54.47
2022-12-07T16:56:17.367Z,54.25
2022-12-07T16:58:19.293Z,54.58
2022-12-07T17:00:21.790Z,54.30
2022-12-07T17:02:23.798Z,54.70
2022-12-07T17:04:25.731Z,54.87
2022-12-07T17:06:28.891Z,54.17
2022-12-07T17:08:32.271Z,54.30
2022-12-07T17:10:35.283Z,54.28
2022-12-07T17:12:41.490Z,53.67
2022-12-07T17:14:43.544Z,53.84
2022-12-07T17:16:45.662Z,54.09
2022-12-07T17:18:47.630Z,54.36
2022-12-07T17:20:49.413Z,53.94
2022-12-07T17:22:51.972Z,54.35
2022-12-07T17:24:55.094Z,54.29
2022-12-07T17:26:56.934Z,54.90
2022-12-07T17:28:59.231Z,53.98
2022-12-07T17:31:01.269Z,54.02
2022-12-07T17:33:03.501Z,54.18
2022-12-07T17:35:07.124Z,54.44
2022-12-07T17:37:09.447Z,54.21
2022-12-07T17:39:12.783Z,54.03
2022-12-07T17:41:17.952Z,54.77
2022-12-07T17:43:19.921Z,54.14
2022-12-07T17:45:22.384Z,54.19
2022-12-07T17:47:24.268Z,53.75
2022-12-07T17:49:27.111Z,54.44
2022-12-07T17:51:28.936Z,54.71
2022-12-07T17:53:30.533Z,54.32
2022-12-07T17:55:49.564Z,53.41
2022-12-07T17:57:55.160Z,53.49
2022-12-07T17:59:57.357Z,53.64
2022-12-07T18:02:01.881Z,53.67
2022-12-07T18:04:04.887Z,54.15
2022-12-07T18:06:06.981Z,54.06
2022-12-07T18:08:08.636Z,54.01
2022-12-07T18:10:10.482Z,54.40
2022-12-07T18:12:12.766Z,54.44
2022-12-07T18:14:16.226Z,54.81
2022-12-07T18:16:19.663Z,54.97
2022-12-07T18:18:21.395Z,54.98
2022-12-07T18:20:23.036Z,55.66
2022-12-07T18:22:24.822Z,54.90
2022-12-07T18:24:29.593Z,54.95
2022-12-07T18:26:34.990Z,55.18
2022-12-07T18:28:36.797Z,54.51
2022-12-07T18:31:13.882Z,54.73
2022-12-07T18:33:03.706Z,54.99
2022-12-07T18:35:06.589Z,54.84
2022-12-07T18:37:08.338Z,55.16
2022-12-07T18:39:10.448Z,55.20
2022-12-07T18:41:14.539Z,55.70
2022-12-07T18:43:16.236Z,55.82
2022-12-07T18:45:18.367Z,55.93
2022-12-07T18:47:21.722Z,56.01
2022-12-07T18:49:23.466Z,55.80
2022-12-07T18:51:31.768Z,56.34
2022-12-07T18:53:35.073Z,56.29
2022-12-07T18:55:37.796Z,56.68
2022-12-07T18:57:41.338Z,56.96
2022-12-07T18:59:43.035Z,56.60
2022-12-07T19:01:50.731Z,56.93
2022-12-07T19:03:54.275Z,56.75
2022-12-07T19:05:56.225Z,57.04
2022-12-07T19:07:57.966Z,56.94
2022-12-07T19:09:59.956Z,57.28
2022-12-07T19:12:04.773Z,57.33
2022-12-07T19:14:06.651Z,57.20
2022-12-07T19:16:09.059Z,57.59
2022-12-07T19:18:10.810Z,57.52
2022-12-07T19:20:15.145Z,57.57
2022-12-07T19:22:19.373Z,57.73
2022-12-07T19:24:23.613Z,57.89
2022-12-07T19:26:25.705Z,57.99
2022-12-07T19:28:27.367Z,57.98
2022-12-07T19:30:29.229Z,58.13
2022-12-07T19:32:31.035Z,58.20
2022-12-07T19:34:33.660Z,58.10
2022-12-07T19:36:37.039Z,58.30
2022-12-07T19:38:39.421Z,58.18
2022-12-07T19:40:44.663Z,58.02
2022-12-07T19:42:47.198Z,57.93
2022-12-07T19:44:49.875Z,58.01
2022-12-07T19:46:53.575Z,58.07
2022-12-07T19:48:55.915Z,58.18
2022-12-07T19:51:02.761Z,57.73
2022-12-07T19:53:07.020Z,57.93
2022-12-07T19:55:09.448Z,57.91
2022-12-07T19:57:11.420Z,57.82
2022-12-07T19:59:15.138Z,57.59
2022-12-07T20:01:18.683Z,57.41
2022-12-07T20:03:21.020Z,57.45
2022-12-07T20:05:22.983Z,57.57
2022-12-07T20:07:25.029Z,57.59
2022-12-07T20:09:28.479Z,57.46
2022-12-07T20:11:31.465Z,57.57
2022-12-07T20:13:34.865Z,57.63
2022-12-07T20:15:37.755Z,57.39
2022-12-07T20:17:42.333Z,57.51
2022-12-07T20:19:44.536Z,57.53
2022-12-07T20:21:47.732Z,57.68
2022-12-07T20:23:49.842Z,57.61
2022-12-07T20:25:53.682Z,57.67
2022-12-07T20:27:56.569Z,57.64
2022-12-07T20:29:59.375Z,57.30
2022-12-07T20:32:01.205Z,57.58
2022-12-07T20:34:02.811Z,57.61
2022-12-07T20:36:06.115Z,57.78
2022-12-07T20:38:09.525Z,57.51
2022-12-07T20:40:12.078Z,57.99
2022-12-07T20:42:15.583Z,57.63
2022-12-07T20:44:18.212Z,57.79
2022-12-07T20:46:22.439Z,57.96
2022-12-07T20:48:25.271Z,58.32
2022-12-07T20:50:29.752Z,58.26
2022-12-07T20:52:33.402Z,58.02
2022-12-07T20:54:36.613Z,58.11
2022-12-07T20:56:41.821Z,57.71
2022-12-07T20:58:45.125Z,58.12
2022-12-07T21:00:49.965Z,58.07
2022-12-07T21:02:51.719Z,58.17
2022-12-07T21:04:53.534Z,57.63
2022-12-07T21:06:58.064Z,57.69
2022-12-07T21:09:00.804Z,57.82
2022-12-07T21:11:07.412Z,58.01
2022-12-07T21:13:09.002Z,58.21
2022-12-07T21:15:12.259Z,57.73
2022-12-07T21:17:14.274Z,57.87
2022-12-07T21:19:16.384Z,58.00
2022-12-07T21:21:19.608Z,58.01
2022-12-07T21:23:21.660Z,58.17
2022-12-07T21:25:23.540Z,57.85
2022-12-07T21:27:25.372Z,58.11
2022-12-07T21:29:43.060Z,58.10
2022-12-07T21:31:47.288Z,58.19
2022-12-07T21:33:49.154Z,58.09
2022-12-07T21:35:51.094Z,58.26
2022-12-07T21:38:00.356Z,58.16
2022-12-07T21:40:02.265Z,58.24
2022-12-07T21:42:04.427Z,58.17
2022-12-07T21:44:07.920Z,58.22
2022-12-07T21:46:09.619Z,58.33
2022-12-07T21:48:12.654Z,58.62
2022-12-07T21:50:14.364Z,58.36
2022-12-07T21:52:16.234Z,58.41
2022-12-07T21:54:22.797Z,58.64
2022-12-07T21:56:29.607Z,58.62
2022-12-07T21:58:34.781Z,58.41
2022-12-07T22:00:36.773Z,58.22
2022-12-07T22:02:38.970Z,58.80
2022-12-07T22:04:42.335Z,58.64
2022-12-07T22:06:44.872Z,58.53
2022-12-07T22:08:46.730Z,58.42
2022-12-07T22:10:48.387Z,58.65
2022-12-07T22:12:50.040Z,58.77
2022-12-07T22:14:51.738Z,58.46
2022-12-07T22:16:53.569Z,58.34
2022-12-07T22:18:55.414Z,58.56
2022-12-07T22:21:04.344Z,58.51
2022-12-07T22:23:06.000Z,58.29
2022-12-07T22:25:09.173Z,58.31
2022-12-07T22:27:11.029Z,58.17
2022-12-07T22:29:12.860Z,58.71
2022-12-07T22:31:17.173Z,58.79
2022-12-07T22:33:18.871Z,58.52
2022-12-07T22:35:20.866Z,58.20
2022-12-07T22:37:23.968Z,58.27
2022-12-07T22:39:25.750Z,58.04
2022-12-07T22:41:29.180Z,58.46
2022-12-07T22:43:30.938Z,58.46
2022-12-07T22:45:32.916Z,58.38
2022-12-07T22:47:34.576Z,58.49
2022-12-07T22:49:36.480Z,58.44
2022-12-07T22:51:39.611Z,58.01
2022-12-07T22:53:42.843Z,57.54
2022-12-07T22:55:44.599Z,57.80
2022-12-07T22:57:46.437Z,57.75
2022-12-07T22:59:48.199Z,57.93
2022-12-07T23:01:49.932Z,57.89
2022-12-07T23:03:52.330Z,57.67
2022-12-07T23:05:54.226Z,57.59
2022-12-07T23:07:55.919Z,57.89
2022-12-07T23:09:59.747Z,57.96
2022-12-07T23:12:01.541Z,57.82
2022-12-07T23:14:03.899Z,57.92
2022-12-07T23:16:11.220Z,57.82
2022-12-07T23:18:13.072Z,58.05
2022-12-07T23:20:14.965Z,57.91
2022-12-07T23:22:17.021Z,57.51
2022-12-07T23:24:19.073Z,57.51
2022-12-07T23:26:22.694Z,57.52
2022-12-07T23:28:24.339Z,57.79
2022-12-07T23:30:26.009Z,57.62
2022-12-07T23:32:28.943Z,58.07
2022-12-07T23:34:30.693Z,58.51
2022-12-07T23:36:32.488Z,58.07
2022-12-07T23:38:36.500Z,58.14
2022-12-07T23:40:38.425Z,58.11
2022-12-07T23:42:41.897Z,58.47
2022-12-07T23:44:43.591Z,58.49
2022-12-07T23:46:45.387Z,58.32
2022-12-07T23:48:48.916Z,57.82
2022-12-07T23:50:50.552Z,58.10
2022-12-07T23:52:52.402Z,58.32
2022-12-07T23:54:54.106Z,58.13
2022-12-07T23:56:56.135Z,58.08
2022-12-07T23:59:00.820Z,58.33
